sensor_id;sensor_type;location;lat;lon;timestamp;temperature;humidity
70214;DHT22;60138;55.808;37.078;2022-11-14T00:02:08;1.72;74.50
70214;DHT22;60138;55.808;37.078;2022-11-14T00:04:53;1.63;73.69
70214;DHT22;60138;55.808;37.078;2022-11-14T00:07:37;1.63;70.84
70214;DHT22;60138;55.808;37.078;2022-11-14T00:10:22;1.79;70.92
70214;DHT22;60138;55.808;37.078;2022-11-14T00:13:06;1.84;69.55
70214;DHT22;60138;55.808;37.078;2022-11-14T00:15:51;1.87;68.98
70214;DHT22;60138;55.808;37.078;2022-11-14T00:18:35;1.90;68.94
70214;DHT22;60138;55.808;37.078;2022-11-14T00:21:19;1.87;67.34
70214;DHT22;60138;55.808;37.078;2022-11-14T00:24:03;1.95;68.97
70214;DHT22;60138;55.808;37.078;2022-11-14T00:26:48;1.93;69.01
70214;DHT22;60138;55.808;37.078;2022-11-14T00:29:32;1.98;69.84
70214;DHT22;60138;55.808;37.078;2022-11-14T00:32:16;1.96;70.10
70214;DHT22;60138;55.808;37.078;2022-11-14T00:35:00;1.99;70.36
70214;DHT22;60138;55.808;37.078;2022-11-14T00:37:44;2.02;71.03
70214;DHT22;60138;55.808;37.078;2022-11-14T00:40:28;2.03;71.51
70214;DHT22;60138;55.808;37.078;2022-11-14T00:43:12;2.07;72.46
70214;DHT22;60138;55.808;37.078;2022-11-14T00:45:56;1.92;73.10
70214;DHT22;60138;55.808;37.078;2022-11-14T00:48:41;1.90;74.28
70214;DHT22;60138;55.808;37.078;2022-11-14T00:51:25;1.85;74.96
70214;DHT22;60138;55.808;37.078;2022-11-14T00:54:09;1.83;77.46
70214;DHT22;60138;55.808;37.078;2022-11-14T00:56:54;1.71;78.88
70214;DHT22;60138;55.808;37.078;2022-11-14T00:59:38;1.60;79.40
70214;DHT22;60138;55.808;37.078;2022-11-14T01:02:22;1.57;78.69
70214;DHT22;60138;55.808;37.078;2022-11-14T01:05:06;1.54;79.14
70214;DHT22;60138;55.808;37.078;2022-11-14T01:07:51;1.34;80.39
70214;DHT22;60138;55.808;37.078;2022-11-14T01:10:40;1.13;82.24
70214;DHT22;60138;55.808;37.078;2022-11-14T01:13:25;1.07;82.54
70214;DHT22;60138;55.808;37.078;2022-11-14T01:16:10;1.07;83.17
70214;DHT22;60138;55.808;37.078;2022-11-14T01:18:54;1.04;82.65
70214;DHT22;60138;55.808;37.078;2022-11-14T01:21:38;1.10;83.42
70214;DHT22;60138;55.808;37.078;2022-11-14T01:24:23;1.11;82.01
70214;DHT22;60138;55.808;37.078;2022-11-14T01:27:07;1.09;82.40
70214;DHT22;60138;55.808;37.078;2022-11-14T01:29:51;1.06;81.85
70214;DHT22;60138;55.808;37.078;2022-11-14T01:32:35;1.02;81.08
70214;DHT22;60138;55.808;37.078;2022-11-14T01:35:19;0.98;77.87
70214;DHT22;60138;55.808;37.078;2022-11-14T01:38:04;0.96;79.59
70214;DHT22;60138;55.808;37.078;2022-11-14T01:40:48;0.89;77.68
70214;DHT22;60138;55.808;37.078;2022-11-14T01:43:37;0.86;74.49
70214;DHT22;60138;55.808;37.078;2022-11-14T01:46:32;0.81;74.64
70214;DHT22;60138;55.808;37.078;2022-11-14T01:49:24;0.81;74.44
70214;DHT22;60138;55.808;37.078;2022-11-14T01:52:17;0.73;74.54
70214;DHT22;60138;55.808;37.078;2022-11-14T01:55:06;0.66;68.64
70214;DHT22;60138;55.808;37.078;2022-11-14T01:57:50;0.75;72.45
70214;DHT22;60138;55.808;37.078;2022-11-14T02:00:34;0.73;69.73
70214;DHT22;60138;55.808;37.078;2022-11-14T02:03:19;0.75;68.61
70214;DHT22;60138;55.808;37.078;2022-11-14T02:06:05;0.81;67.42
70214;DHT22;60138;55.808;37.078;2022-11-14T02:08:50;0.81;65.42
70214;DHT22;60138;55.808;37.078;2022-11-14T02:11:38;0.87;65.93
70214;DHT22;60138;55.808;37.078;2022-11-14T02:14:23;0.91;65.35
70214;DHT22;60138;55.808;37.078;2022-11-14T02:17:08;0.93;64.85
70214;DHT22;60138;55.808;37.078;2022-11-14T02:22:48;0.93;63.41
70214;DHT22;60138;55.808;37.078;2022-11-14T02:25:32;0.98;65.04
70214;DHT22;60138;55.808;37.078;2022-11-14T02:28:17;1.01;65.78
70214;DHT22;60138;55.808;37.078;2022-11-14T02:31:01;1.01;64.43
70214;DHT22;60138;55.808;37.078;2022-11-14T02:33:46;1.02;62.82
70214;DHT22;60138;55.808;37.078;2022-11-14T02:36:30;0.97;60.74
70214;DHT22;60138;55.808;37.078;2022-11-14T02:39:14;1.02;63.18
70214;DHT22;60138;55.808;37.078;2022-11-14T02:41:58;0.96;60.54
70214;DHT22;60138;55.808;37.078;2022-11-14T02:44:42;1.04;63.56
70214;DHT22;60138;55.808;37.078;2022-11-14T02:47:26;0.93;58.88
70214;DHT22;60138;55.808;37.078;2022-11-14T02:50:11;1.02;62.96
70214;DHT22;60138;55.808;37.078;2022-11-14T02:52:55;0.95;59.13
70214;DHT22;60138;55.808;37.078;2022-11-14T02:55:40;0.94;59.56
70214;DHT22;60138;55.808;37.078;2022-11-14T02:58:24;0.99;60.70
70214;DHT22;60138;55.808;37.078;2022-11-14T03:01:08;0.98;59.03
70214;DHT22;60138;55.808;37.078;2022-11-14T03:03:52;0.96;58.38
70214;DHT22;60138;55.808;37.078;2022-11-14T03:06:37;1.01;60.43
70214;DHT22;60138;55.808;37.078;2022-11-14T03:09:21;0.98;59.49
70214;DHT22;60138;55.808;37.078;2022-11-14T03:12:05;0.97;59.88
70214;DHT22;60138;55.808;37.078;2022-11-14T03:14:49;0.95;58.37
70214;DHT22;60138;55.808;37.078;2022-11-14T03:17:34;0.93;58.38
70214;DHT22;60138;55.808;37.078;2022-11-14T03:20:18;0.92;58.18
70214;DHT22;60138;55.808;37.078;2022-11-14T03:23:03;0.91;58.80
70214;DHT22;60138;55.808;37.078;2022-11-14T03:25:47;0.90;58.93
70214;DHT22;60138;55.808;37.078;2022-11-14T03:28:31;0.88;59.46
70214;DHT22;60138;55.808;37.078;2022-11-14T03:31:16;0.82;57.71
70214;DHT22;60138;55.808;37.078;2022-11-14T03:34:00;0.82;57.22
70214;DHT22;60138;55.808;37.078;2022-11-14T03:36:44;0.86;58.04
70214;DHT22;60138;55.808;37.078;2022-11-14T03:39:28;0.80;57.58
70214;DHT22;60138;55.808;37.078;2022-11-14T03:42:12;0.81;57.34
70214;DHT22;60138;55.808;37.078;2022-11-14T03:44:56;0.84;58.21
70214;DHT22;60138;55.808;37.078;2022-11-14T03:47:40;0.91;58.79
70214;DHT22;60138;55.808;37.078;2022-11-14T03:50:25;0.90;58.64
70214;DHT22;60138;55.808;37.078;2022-11-14T03:53:09;0.89;57.93
70214;DHT22;60138;55.808;37.078;2022-11-14T03:55:53;0.93;60.18
70214;DHT22;60138;55.808;37.078;2022-11-14T03:58:37;0.93;59.48
70214;DHT22;60138;55.808;37.078;2022-11-14T04:01:21;0.90;59.73
70214;DHT22;60138;55.808;37.078;2022-11-14T04:04:05;0.88;59.09
70214;DHT22;60138;55.808;37.078;2022-11-14T04:06:50;0.82;58.11
70214;DHT22;60138;55.808;37.078;2022-11-14T04:09:34;0.76;57.32
70214;DHT22;60138;55.808;37.078;2022-11-14T04:12:18;0.72;61.26
70214;DHT22;60138;55.808;37.078;2022-11-14T04:15:02;0.63;57.20
70214;DHT22;60138;55.808;37.078;2022-11-14T04:17:46;0.68;60.79
70214;DHT22;60138;55.808;37.078;2022-11-14T04:20:30;0.52;55.99
70214;DHT22;60138;55.808;37.078;2022-11-14T04:23:14;0.51;56.71
70214;DHT22;60138;55.808;37.078;2022-11-14T04:25:59;0.50;57.42
70214;DHT22;60138;55.808;37.078;2022-11-14T04:28:43;0.43;58.96
70214;DHT22;60138;55.808;37.078;2022-11-14T04:31:27;0.37;61.15
70214;DHT22;60138;55.808;37.078;2022-11-14T04:34:11;0.17;56.27
70214;DHT22;60138;55.808;37.078;2022-11-14T04:36:55;0.13;56.82
70214;DHT22;60138;55.808;37.078;2022-11-14T04:39:40;0.05;57.27
70214;DHT22;60138;55.808;37.078;2022-11-14T04:42:24;0.02;57.97
70214;DHT22;60138;55.808;37.078;2022-11-14T04:45:08;-0.07;57.42
70214;DHT22;60138;55.808;37.078;2022-11-14T04:47:52;-0.10;58.17
70214;DHT22;60138;55.808;37.078;2022-11-14T04:50:36;-0.12;58.50
70214;DHT22;60138;55.808;37.078;2022-11-14T04:53:21;-0.16;59.38
70214;DHT22;60138;55.808;37.078;2022-11-14T04:56:05;-0.23;59.71
70214;DHT22;60138;55.808;37.078;2022-11-14T04:58:50;-0.28;59.97
70214;DHT22;60138;55.808;37.078;2022-11-14T05:01:34;-0.26;61.08
70214;DHT22;60138;55.808;37.078;2022-11-14T05:04:18;-0.36;59.25
70214;DHT22;60138;55.808;37.078;2022-11-14T05:07:02;-0.43;59.39
70214;DHT22;60138;55.808;37.078;2022-11-14T05:09:46;-0.52;58.86
70214;DHT22;60138;55.808;37.078;2022-11-14T05:12:30;-0.49;59.77
70214;DHT22;60138;55.808;37.078;2022-11-14T05:15:15;-0.51;60.32
70214;DHT22;60138;55.808;37.078;2022-11-14T05:18:00;-0.57;60.41
70214;DHT22;60138;55.808;37.078;2022-11-14T05:20:44;-0.62;61.09
70214;DHT22;60138;55.808;37.078;2022-11-14T05:23:28;-0.64;61.72
70214;DHT22;60138;55.808;37.078;2022-11-14T05:26:17;-0.71;60.83
70214;DHT22;60138;55.808;37.078;2022-11-14T05:29:02;-0.72;60.96
70214;DHT22;60138;55.808;37.078;2022-11-14T05:31:46;-0.76;61.17
70214;DHT22;60138;55.808;37.078;2022-11-14T05:34:31;-0.71;61.96
70214;DHT22;60138;55.808;37.078;2022-11-14T05:37:15;-0.75;61.86
70214;DHT22;60138;55.808;37.078;2022-11-14T05:39:59;-0.80;62.41
70214;DHT22;60138;55.808;37.078;2022-11-14T05:42:44;-0.82;62.49
70214;DHT22;60138;55.808;37.078;2022-11-14T05:45:29;-0.83;62.37
70214;DHT22;60138;55.808;37.078;2022-11-14T05:48:13;-0.88;61.91
70214;DHT22;60138;55.808;37.078;2022-11-14T05:51:01;-0.88;62.18
70214;DHT22;60138;55.808;37.078;2022-11-14T05:53:45;-0.89;61.52
70214;DHT22;60138;55.808;37.078;2022-11-14T05:56:29;-0.93;61.67
70214;DHT22;60138;55.808;37.078;2022-11-14T05:59:13;-0.89;62.29
70214;DHT22;60138;55.808;37.078;2022-11-14T06:01:57;-0.95;62.50
70214;DHT22;60138;55.808;37.078;2022-11-14T06:04:41;-0.97;61.81
70214;DHT22;60138;55.808;37.078;2022-11-14T06:07:25;-0.91;61.81
70214;DHT22;60138;55.808;37.078;2022-11-14T06:10:10;-0.96;61.71
70214;DHT22;60138;55.808;37.078;2022-11-14T06:12:54;-0.91;62.60
70214;DHT22;60138;55.808;37.078;2022-11-14T06:15:39;-0.90;61.97
70214;DHT22;60138;55.808;37.078;2022-11-14T06:18:23;-0.95;62.32
70214;DHT22;60138;55.808;37.078;2022-11-14T06:21:18;-0.95;62.19
70214;DHT22;60138;55.808;37.078;2022-11-14T06:24:03;-0.95;62.82
70214;DHT22;60138;55.808;37.078;2022-11-14T06:26:48;-0.94;62.10
70214;DHT22;60138;55.808;37.078;2022-11-14T06:29:31;-0.88;62.61
70214;DHT22;60138;55.808;37.078;2022-11-14T06:32:16;-0.88;62.76
70214;DHT22;60138;55.808;37.078;2022-11-14T06:35:00;-0.90;63.21
70214;DHT22;60138;55.808;37.078;2022-11-14T06:37:44;-0.93;61.79
70214;DHT22;60138;55.808;37.078;2022-11-14T06:40:28;-0.84;62.93
70214;DHT22;60138;55.808;37.078;2022-11-14T06:43:12;-0.84;62.90
70214;DHT22;60138;55.808;37.078;2022-11-14T06:45:56;-0.85;61.59
70214;DHT22;60138;55.808;37.078;2022-11-14T06:48:41;-0.79;62.30
70214;DHT22;60138;55.808;37.078;2022-11-14T06:51:26;-0.82;61.83
70214;DHT22;60138;55.808;37.078;2022-11-14T06:54:11;-0.80;62.89
70214;DHT22;60138;55.808;37.078;2022-11-14T06:56:55;-0.80;62.63
70214;DHT22;60138;55.808;37.078;2022-11-14T06:59:40;-0.79;61.86
70214;DHT22;60138;55.808;37.078;2022-11-14T07:02:24;-0.75;62.74
70214;DHT22;60138;55.808;37.078;2022-11-14T07:05:08;-0.79;61.57
70214;DHT22;60138;55.808;37.078;2022-11-14T07:07:52;-0.70;62.73
70214;DHT22;60138;55.808;37.078;2022-11-14T07:10:36;-0.73;63.27
70214;DHT22;60138;55.808;37.078;2022-11-14T07:13:20;-0.77;62.21
70214;DHT22;60138;55.808;37.078;2022-11-14T07:16:05;-0.72;62.35
70214;DHT22;60138;55.808;37.078;2022-11-14T07:18:49;-0.68;61.70
70214;DHT22;60138;55.808;37.078;2022-11-14T07:21:34;-0.69;60.60
70214;DHT22;60138;55.808;37.078;2022-11-14T07:24:18;-0.64;61.51
70214;DHT22;60138;55.808;37.078;2022-11-14T07:27:02;-0.67;61.21
70214;DHT22;60138;55.808;37.078;2022-11-14T07:29:46;-0.67;62.12
70214;DHT22;60138;55.808;37.078;2022-11-14T07:32:30;-0.64;62.40
70214;DHT22;60138;55.808;37.078;2022-11-14T07:35:14;-0.61;61.79
70214;DHT22;60138;55.808;37.078;2022-11-14T07:38:02;-0.59;61.71
70214;DHT22;60138;55.808;37.078;2022-11-14T07:40:59;-0.57;61.81
70214;DHT22;60138;55.808;37.078;2022-11-14T07:43:43;-0.54;61.96
70214;DHT22;60138;55.808;37.078;2022-11-14T07:46:28;-0.51;61.19
70214;DHT22;60138;55.808;37.078;2022-11-14T07:49:12;-0.50;61.34
70214;DHT22;60138;55.808;37.078;2022-11-14T07:51:56;-0.49;59.54
70214;DHT22;60138;55.808;37.078;2022-11-14T07:54:40;-0.42;61.54
70214;DHT22;60138;55.808;37.078;2022-11-14T07:57:24;-0.45;59.44
70214;DHT22;60138;55.808;37.078;2022-11-14T08:00:09;-0.39;59.83
70214;DHT22;60138;55.808;37.078;2022-11-14T08:02:53;-0.38;59.09
70214;DHT22;60138;55.808;37.078;2022-11-14T08:05:37;-0.27;59.91
70214;DHT22;60138;55.808;37.078;2022-11-14T08:08:22;-0.27;58.51
70214;DHT22;60138;55.808;37.078;2022-11-14T08:11:07;-0.24;58.35
70214;DHT22;60138;55.808;37.078;2022-11-14T08:13:51;-0.21;59.08
70214;DHT22;60138;55.808;37.078;2022-11-14T08:16:35;-0.22;59.49
70214;DHT22;60138;55.808;37.078;2022-11-14T08:19:18;-0.26;59.56
70214;DHT22;60138;55.808;37.078;2022-11-14T08:22:03;-0.28;58.77
70214;DHT22;60138;55.808;37.078;2022-11-14T08:24:47;-0.19;59.99
70214;DHT22;60138;55.808;37.078;2022-11-14T08:27:31;-0.15;58.57
70214;DHT22;60138;55.808;37.078;2022-11-14T08:30:15;-0.13;59.36
70214;DHT22;60138;55.808;37.078;2022-11-14T08:33:01;-0.15;59.09
70214;DHT22;60138;55.808;37.078;2022-11-14T08:35:45;-0.08;59.78
70214;DHT22;60138;55.808;37.078;2022-11-14T08:38:30;-0.07;59.51
70214;DHT22;60138;55.808;37.078;2022-11-14T08:41:14;-0.05;58.13
70214;DHT22;60138;55.808;37.078;2022-11-14T08:43:58;-0.05;58.71
70214;DHT22;60138;55.808;37.078;2022-11-14T08:46:43;-0.06;59.51
70214;DHT22;60138;55.808;37.078;2022-11-14T08:49:27;-0.02;58.16
70214;DHT22;60138;55.808;37.078;2022-11-14T08:52:11;0.06;57.23
70214;DHT22;60138;55.808;37.078;2022-11-14T08:54:55;0.06;57.90
70214;DHT22;60138;55.808;37.078;2022-11-14T08:57:39;0.06;59.03
70214;DHT22;60138;55.808;37.078;2022-11-14T09:00:23;0.06;59.46
70214;DHT22;60138;55.808;37.078;2022-11-14T09:03:11;0.10;58.77
70214;DHT22;60138;55.808;37.078;2022-11-14T09:05:56;0.17;58.03
70214;DHT22;60138;55.808;37.078;2022-11-14T09:08:40;0.19;58.15
70214;DHT22;60138;55.808;37.078;2022-11-14T09:11:25;0.20;58.51
70214;DHT22;60138;55.808;37.078;2022-11-14T09:14:09;0.27;58.56
70214;DHT22;60138;55.808;37.078;2022-11-14T09:16:53;0.34;59.86
70214;DHT22;60138;55.808;37.078;2022-11-14T09:19:37;0.34;58.70
70214;DHT22;60138;55.808;37.078;2022-11-14T09:22:22;0.38;58.57
70214;DHT22;60138;55.808;37.078;2022-11-14T09:25:06;0.34;57.84
70214;DHT22;60138;55.808;37.078;2022-11-14T09:27:51;0.40;57.71
70214;DHT22;60138;55.808;37.078;2022-11-14T09:30:36;0.40;56.36
70214;DHT22;60138;55.808;37.078;2022-11-14T09:33:20;0.40;58.09
70214;DHT22;60138;55.808;37.078;2022-11-14T09:36:07;0.42;57.35
70214;DHT22;60138;55.808;37.078;2022-11-14T09:38:52;0.45;57.85
70214;DHT22;60138;55.808;37.078;2022-11-14T09:42:04;0.47;57.84
70214;DHT22;60138;55.808;37.078;2022-11-14T09:45:00;0.47;56.85
70214;DHT22;60138;55.808;37.078;2022-11-14T09:47:47;0.51;59.54
70214;DHT22;60138;55.808;37.078;2022-11-14T09:50:36;0.49;57.55
70214;DHT22;60138;55.808;37.078;2022-11-14T09:56:24;0.59;58.02
70214;DHT22;60138;55.808;37.078;2022-11-14T09:59:13;0.60;58.44
70214;DHT22;60138;55.808;37.078;2022-11-14T10:05:16;0.66;57.00
70214;DHT22;60138;55.808;37.078;2022-11-14T10:14:56;0.64;56.50
70214;DHT22;60138;55.808;37.078;2022-11-14T10:20:57;0.68;57.84
70214;DHT22;60138;55.808;37.078;2022-11-14T10:26:28;0.76;57.93
70214;DHT22;60138;55.808;37.078;2022-11-14T10:29:51;0.79;56.55
70214;DHT22;60138;55.808;37.078;2022-11-14T10:36:11;0.81;56.71
70214;DHT22;60138;55.808;37.078;2022-11-14T10:41:56;0.80;57.06
70214;DHT22;60138;55.808;37.078;2022-11-14T10:44:57;0.79;56.31
70214;DHT22;60138;55.808;37.078;2022-11-14T10:48:47;0.81;56.95
70214;DHT22;60138;55.808;37.078;2022-11-14T10:51:42;0.79;56.37
70214;DHT22;60138;55.808;37.078;2022-11-14T10:54:47;0.87;57.97
70214;DHT22;60138;55.808;37.078;2022-11-14T10:57:33;0.90;58.45
70214;DHT22;60138;55.808;37.078;2022-11-14T11:00:19;0.87;57.43
70214;DHT22;60138;55.808;37.078;2022-11-14T11:03:04;0.87;57.78
70214;DHT22;60138;55.808;37.078;2022-11-14T11:05:50;0.81;54.75
70214;DHT22;60138;55.808;37.078;2022-11-14T11:08:42;0.81;55.52
70214;DHT22;60138;55.808;37.078;2022-11-14T11:11:26;0.88;57.09
70214;DHT22;60138;55.808;37.078;2022-11-14T11:14:17;0.88;56.32
70214;DHT22;60138;55.808;37.078;2022-11-14T11:19:56;0.92;56.04
70214;DHT22;60138;55.808;37.078;2022-11-14T11:23:04;0.96;56.24
70214;DHT22;60138;55.808;37.078;2022-11-14T11:26:01;0.95;55.93
70214;DHT22;60138;55.808;37.078;2022-11-14T11:31:55;0.88;54.41
70214;DHT22;60138;55.808;37.078;2022-11-14T11:34:40;0.90;56.30
70214;DHT22;60138;55.808;37.078;2022-11-14T11:37:36;0.94;56.72
70214;DHT22;60138;55.808;37.078;2022-11-14T11:40:24;0.90;53.83
70214;DHT22;60138;55.808;37.078;2022-11-14T11:46:49;1.02;56.85
70214;DHT22;60138;55.808;37.078;2022-11-14T11:55:48;1.04;52.73
70214;DHT22;60138;55.808;37.078;2022-11-14T11:58:43;1.08;54.67
70214;DHT22;60138;55.808;37.078;2022-11-14T12:01:28;1.07;55.07
70214;DHT22;60138;55.808;37.078;2022-11-14T12:04:12;1.02;55.92
70214;DHT22;60138;55.808;37.078;2022-11-14T12:07:37;1.03;56.38
70214;DHT22;60138;55.808;37.078;2022-11-14T12:10:30;0.99;55.60
70214;DHT22;60138;55.808;37.078;2022-11-14T12:23:31;0.89;52.77
70214;DHT22;60138;55.808;37.078;2022-11-14T12:26:54;0.92;55.74
70214;DHT22;60138;55.808;37.078;2022-11-14T12:36:00;0.91;53.61
70214;DHT22;60138;55.808;37.078;2022-11-14T12:38:47;0.91;53.07
70214;DHT22;60138;55.808;37.078;2022-11-14T12:41:33;0.90;54.42
70214;DHT22;60138;55.808;37.078;2022-11-14T12:47:14;0.88;53.58
70214;DHT22;60138;55.808;37.078;2022-11-14T12:50:00;0.88;53.97
70214;DHT22;60138;55.808;37.078;2022-11-14T12:52:50;0.87;55.53
70214;DHT22;60138;55.808;37.078;2022-11-14T13:10:42;0.59;56.48
70214;DHT22;60138;55.808;37.078;2022-11-14T13:13:27;0.53;54.68
70214;DHT22;60138;55.808;37.078;2022-11-14T13:16:25;0.49;56.48
70214;DHT22;60138;55.808;37.078;2022-11-14T13:19:19;0.42;55.20
70214;DHT22;60138;55.808;37.078;2022-11-14T13:27:41;0.23;56.89
70214;DHT22;60138;55.808;37.078;2022-11-14T13:33:57;0.10;57.53
70214;DHT22;60138;55.808;37.078;2022-11-14T13:52:00;-0.12;57.39
70214;DHT22;60138;55.808;37.078;2022-11-14T13:54:48;-0.11;57.83
70214;DHT22;60138;55.808;37.078;2022-11-14T13:57:59;-0.12;58.09
70214;DHT22;60138;55.808;37.078;2022-11-14T14:10:48;-0.30;58.80
70214;DHT22;60138;55.808;37.078;2022-11-14T14:16:56;-0.40;58.93
70214;DHT22;60138;55.808;37.078;2022-11-14T14:31:42;-0.56;59.96
70214;DHT22;60138;55.808;37.078;2022-11-14T14:34:30;-0.59;59.99
70214;DHT22;60138;55.808;37.078;2022-11-14T14:37:24;-0.65;60.64
70214;DHT22;60138;55.808;37.078;2022-11-14T14:40:22;-0.68;61.10
70214;DHT22;60138;55.808;37.078;2022-11-14T14:43:23;-0.76;61.16
70214;DHT22;60138;55.808;37.078;2022-11-14T14:46:08;-0.83;61.43
70214;DHT22;60138;55.808;37.078;2022-11-14T14:48:52;-0.93;62.27
70214;DHT22;60138;55.808;37.078;2022-11-14T14:51:36;-0.95;62.33
70214;DHT22;60138;55.808;37.078;2022-11-14T14:54:26;-0.98;62.21
70214;DHT22;60138;55.808;37.078;2022-11-14T14:57:17;-1.02;61.91
70214;DHT22;60138;55.808;37.078;2022-11-14T15:00:05;-1.08;62.29
70214;DHT22;60138;55.808;37.078;2022-11-14T15:02:50;-1.13;62.18
70214;DHT22;60138;55.808;37.078;2022-11-14T15:05:35;-1.16;62.51
70214;DHT22;60138;55.808;37.078;2022-11-14T15:08:20;-1.21;63.05
70214;DHT22;60138;55.808;37.078;2022-11-14T15:11:05;-1.24;62.89
70214;DHT22;60138;55.808;37.078;2022-11-14T15:13:53;-1.28;63.27
70214;DHT22;60138;55.808;37.078;2022-11-14T15:16:38;-1.29;63.49
70214;DHT22;60138;55.808;37.078;2022-11-14T15:19:33;-1.30;63.06
70214;DHT22;60138;55.808;37.078;2022-11-14T15:22:25;-1.31;63.47
70214;DHT22;60138;55.808;37.078;2022-11-14T15:27:54;-1.27;63.15
70214;DHT22;60138;55.808;37.078;2022-11-14T15:30:38;-1.24;63.09
70214;DHT22;60138;55.808;37.078;2022-11-14T15:36:16;-1.09;62.92
70214;DHT22;60138;55.808;37.078;2022-11-14T15:39:20;-1.00;62.43
70214;DHT22;60138;55.808;37.078;2022-11-14T15:48:17;-0.69;61.96
70214;DHT22;60138;55.808;37.078;2022-11-14T15:51:01;-0.64;61.17
70214;DHT22;60138;55.808;37.078;2022-11-14T15:53:47;-0.58;61.78
70214;DHT22;60138;55.808;37.078;2022-11-14T15:56:32;-0.52;60.24
70214;DHT22;60138;55.808;37.078;2022-11-14T15:59:16;-0.44;60.25
70214;DHT22;60138;55.808;37.078;2022-11-14T16:02:12;-0.39;60.97
70214;DHT22;60138;55.808;37.078;2022-11-14T16:04:58;-0.34;60.90
70214;DHT22;60138;55.808;37.078;2022-11-14T16:07:43;-0.27;59.96
70214;DHT22;60138;55.808;37.078;2022-11-14T16:10:28;-0.23;59.54
70214;DHT22;60138;55.808;37.078;2022-11-14T16:13:12;-0.22;58.49
70214;DHT22;60138;55.808;37.078;2022-11-14T16:15:56;-0.21;59.05
70214;DHT22;60138;55.808;37.078;2022-11-14T16:18:40;-0.17;59.12
70214;DHT22;60138;55.808;37.078;2022-11-14T16:21:24;-0.14;59.81
70214;DHT22;60138;55.808;37.078;2022-11-14T16:24:16;-0.14;58.53
70214;DHT22;60138;55.808;37.078;2022-11-14T16:27:00;-0.12;58.96
70214;DHT22;60138;55.808;37.078;2022-11-14T16:29:45;-0.13;59.20
70214;DHT22;60138;55.808;37.078;2022-11-14T16:32:29;-0.11;58.78
70214;DHT22;60138;55.808;37.078;2022-11-14T16:35:14;-0.12;58.00
70214;DHT22;60138;55.808;37.078;2022-11-14T16:37:59;-0.12;57.45
70214;DHT22;60138;55.808;37.078;2022-11-14T16:40:43;-0.03;59.98
70214;DHT22;60138;55.808;37.078;2022-11-14T16:43:27;-0.03;57.74
70214;DHT22;60138;55.808;37.078;2022-11-14T16:46:12;0.01;58.51
70214;DHT22;60138;55.808;37.078;2022-11-14T16:48:56;0.04;58.27
70214;DHT22;60138;55.808;37.078;2022-11-14T16:51:41;0.05;59.06
70214;DHT22;60138;55.808;37.078;2022-11-14T16:54:26;0.05;58.42
70214;DHT22;60138;55.808;37.078;2022-11-14T16:57:10;0.06;57.72
70214;DHT22;60138;55.808;37.078;2022-11-14T16:59:54;0.07;57.31
70214;DHT22;60138;55.808;37.078;2022-11-14T17:02:39;0.06;56.41
70214;DHT22;60138;55.808;37.078;2022-11-14T17:05:24;0.08;57.43
70214;DHT22;60138;55.808;37.078;2022-11-14T17:08:08;0.10;56.36
70214;DHT22;60138;55.808;37.078;2022-11-14T17:10:52;0.14;57.90
70214;DHT22;60138;55.808;37.078;2022-11-14T17:13:37;0.15;55.78
70214;DHT22;60138;55.808;37.078;2022-11-14T17:16:21;0.18;56.35
70214;DHT22;60138;55.808;37.078;2022-11-14T17:19:05;0.18;56.39
70214;DHT22;60138;55.808;37.078;2022-11-14T17:21:50;0.20;55.79
70214;DHT22;60138;55.808;37.078;2022-11-14T17:24:34;0.19;55.01
70214;DHT22;60138;55.808;37.078;2022-11-14T17:27:18;0.22;55.57
70214;DHT22;60138;55.808;37.078;2022-11-14T17:30:02;0.25;56.18
70214;DHT22;60138;55.808;37.078;2022-11-14T17:32:46;0.28;55.06
70214;DHT22;60138;55.808;37.078;2022-11-14T17:35:30;0.32;57.19
70214;DHT22;60138;55.808;37.078;2022-11-14T17:38:14;0.34;57.41
70214;DHT22;60138;55.808;37.078;2022-11-14T17:40:58;0.34;56.90
70214;DHT22;60138;55.808;37.078;2022-11-14T17:43:43;0.36;57.39
70214;DHT22;60138;55.808;37.078;2022-11-14T17:46:28;0.36;56.45
70214;DHT22;60138;55.808;37.078;2022-11-14T17:49:12;0.32;52.46
70214;DHT22;60138;55.808;37.078;2022-11-14T17:51:56;0.35;53.56
70214;DHT22;60138;55.808;37.078;2022-11-14T17:54:40;0.37;53.37
70214;DHT22;60138;55.808;37.078;2022-11-14T17:57:25;0.37;53.89
70214;DHT22;60138;55.808;37.078;2022-11-14T18:00:10;0.39;53.95
70214;DHT22;60138;55.808;37.078;2022-11-14T18:02:55;0.38;52.88
70214;DHT22;60138;55.808;37.078;2022-11-14T18:05:39;0.43;53.24
70214;DHT22;60138;55.808;37.078;2022-11-14T18:08:23;0.43;53.52
70214;DHT22;60138;55.808;37.078;2022-11-14T18:11:09;0.46;55.07
70214;DHT22;60138;55.808;37.078;2022-11-14T18:13:53;0.44;51.64
70214;DHT22;60138;55.808;37.078;2022-11-14T18:16:37;0.50;54.84
70214;DHT22;60138;55.808;37.078;2022-11-14T18:19:21;0.47;53.04
70214;DHT22;60138;55.808;37.078;2022-11-14T18:22:05;0.46;52.00
70214;DHT22;60138;55.808;37.078;2022-11-14T18:24:49;0.50;54.95
70214;DHT22;60138;55.808;37.078;2022-11-14T18:27:34;0.49;53.71
70214;DHT22;60138;55.808;37.078;2022-11-14T18:30:18;0.48;53.35
70214;DHT22;60138;55.808;37.078;2022-11-14T18:33:02;0.48;52.65
70214;DHT22;60138;55.808;37.078;2022-11-14T18:35:59;0.46;52.35
70214;DHT22;60138;55.808;37.078;2022-11-14T18:38:44;0.46;51.92
70214;DHT22;60138;55.808;37.078;2022-11-14T18:41:28;0.50;55.52
70214;DHT22;60138;55.808;37.078;2022-11-14T18:44:12;0.48;51.52
70214;DHT22;60138;55.808;37.078;2022-11-14T18:46:56;0.50;54.20
70214;DHT22;60138;55.808;37.078;2022-11-14T18:49:40;0.52;53.23
70214;DHT22;60138;55.808;37.078;2022-11-14T18:52:24;0.53;53.21
70214;DHT22;60138;55.808;37.078;2022-11-14T18:55:08;0.50;51.30
70214;DHT22;60138;55.808;37.078;2022-11-14T18:57:52;0.49;51.56
70214;DHT22;60138;55.808;37.078;2022-11-14T19:00:37;0.51;52.85
70214;DHT22;60138;55.808;37.078;2022-11-14T19:03:21;0.51;53.21
70214;DHT22;60138;55.808;37.078;2022-11-14T19:06:07;0.52;53.80
70214;DHT22;60138;55.808;37.078;2022-11-14T19:08:59;0.51;52.61
70214;DHT22;60138;55.808;37.078;2022-11-14T19:11:44;0.52;55.33
70214;DHT22;60138;55.808;37.078;2022-11-14T19:14:28;0.50;52.20
70214;DHT22;60138;55.808;37.078;2022-11-14T19:17:12;0.50;51.97
70214;DHT22;60138;55.808;37.078;2022-11-14T19:19:57;0.50;54.58
70214;DHT22;60138;55.808;37.078;2022-11-14T19:22:40;0.51;53.08
70214;DHT22;60138;55.808;37.078;2022-11-14T19:25:25;0.49;52.35
70214;DHT22;60138;55.808;37.078;2022-11-14T19:28:09;0.49;53.42
70214;DHT22;60138;55.808;37.078;2022-11-14T19:30:59;0.51;54.04
70214;DHT22;60138;55.808;37.078;2022-11-14T19:33:44;0.50;53.35
70214;DHT22;60138;55.808;37.078;2022-11-14T19:36:28;0.50;54.36
70214;DHT22;60138;55.808;37.078;2022-11-14T19:39:12;0.49;51.28
70214;DHT22;60138;55.808;37.078;2022-11-14T19:41:56;0.48;52.44
70214;DHT22;60138;55.808;37.078;2022-11-14T19:44:40;0.50;52.11